Time;durP1;ratioP1;P1;durP2;ratioP2;P2;SDS_P1;SDS_P2;PMS_P1;PMS_P2;Temp;Humidity;BMP_temperature;BMP_pressure;BME280_temperature;BME280_humidity;BME280_pressure;Samples;Min_cycle;Max_cycle;Signal;HPM_P1;HPM_P2
2022/08/23 00:01:49;;;;;;;16.83;7.22;;;;;;;;;;5011003;28;20153;-76
2022/08/23 00:04:23;;;;;;;17.98;7.45;;;;;;;;;;5006410;28;20939;-75
2022/08/23 00:07:01;;;;;;;13.30;7.55;;;;;;;;;;5014320;28;20066;-76
2022/08/23 00:09:29;;;;;;;11.43;6.80;;;;;;;;;;5016562;28;20039;-76
2022/08/23 00:12:06;;;;;;;14.50;7.78;;;;;;;;;;5016859;28;20825;-75
2022/08/23 00:14:34;;;;;;;11.98;6.85;;;;;;;;;;5012757;28;20057;-76
2022/08/23 00:17:04;;;;;;;15.00;6.88;;;;;;;;;;5014314;28;20058;-75
2022/08/23 00:19:31;;;;;;;13.88;6.88;;;;;;;;;;5013061;28;20055;-76
2022/08/23 00:21:58;;;;;;;13.15;6.90;;;;;;;;;;5018215;28;20046;-76
2022/08/23 00:24:26;;;;;;;17.23;6.38;;;;;;;;;;5013181;28;20053;-75
2022/08/23 00:26:59;;;;;;;10.80;6.63;;;;;;;;;;5011046;28;20049;-75
2022/08/23 00:29:28;;;;;;;10.68;5.93;;;;;;;;;;5017953;28;20138;-76
2022/08/23 00:31:55;;;;;;;10.13;6.25;;;;;;;;;;5011564;28;20204;-75
2022/08/23 00:34:23;;;;;;;14.95;6.90;;;;;;;;;;5037420;28;20056;-75
2022/08/23 00:36:50;;;;;;;11.68;7.25;;;;;;;;;;5018838;28;20476;-76
2022/08/23 00:39:18;;;;;;;15.57;7.45;;;;;;;;;;5018220;28;20047;-76
2022/08/23 00:41:46;;;;;;;12.07;7.63;;;;;;;;;;5021157;28;20051;-76
2022/08/23 00:49:54;;;;;;;11.60;7.60;;;;;;;;;;5020850;28;20054;-76
2022/08/23 00:52:28;;;;;;;13.82;7.60;;;;;;;;;;5035046;28;20069;-77
2022/08/23 00:54:55;;;;;;;12.55;7.45;;;;;;;;;;5017635;28;20148;-75
2022/08/23 00:57:22;;;;;;;11.52;7.55;;;;;;;;;;5019416;28;20109;-75
2022/08/23 00:59:49;;;;;;;14.82;7.18;;;;;;;;;;5021156;28;20050;-76
2022/08/23 01:02:17;;;;;;;12.73;7.28;;;;;;;;;;5007578;28;20124;-76
2022/08/23 01:04:48;;;;;;;12.07;7.10;;;;;;;;;;5009391;28;20045;-76
2022/08/23 01:07:23;;;;;;;13.82;7.20;;;;;;;;;;5015196;28;20061;-75
2022/08/23 01:09:51;;;;;;;11.80;7.32;;;;;;;;;;5016924;28;20055;-76
2022/08/23 01:12:26;;;;;;;10.13;7.22;;;;;;;;;;5015458;28;20106;-74
2022/08/23 01:15:01;;;;;;;17.33;7.78;;;;;;;;;;5012987;28;20143;-75
2022/08/23 01:17:49;;;;;;;12.75;7.65;;;;;;;;;;5008929;28;20057;-77
2022/08/23 01:20:18;;;;;;;14.48;7.60;;;;;;;;;;5015171;28;20066;-76
2022/08/23 01:22:56;;;;;;;13.93;6.97;;;;;;;;;;5013834;28;20079;-75
2022/08/23 01:25:25;;;;;;;10.70;6.85;;;;;;;;;;5010615;28;20066;-75
2022/08/23 01:27:53;;;;;;;13.85;8.07;;;;;;;;;;5017237;28;20026;-75
2022/08/23 01:30:22;;;;;;;17.25;7.75;;;;;;;;;;5017740;28;20049;-76
2022/08/23 01:32:52;;;;;;;13.23;7.13;;;;;;;;;;5018610;28;20054;-75
2022/08/23 01:35:20;;;;;;;13.32;7.72;;;;;;;;;;5017957;28;20042;-76
2022/08/23 01:37:52;;;;;;;11.88;7.78;;;;;;;;;;5014510;28;20982;-75
2022/08/23 01:40:20;;;;;;;12.50;8.20;;;;;;;;;;5011082;28;20046;-77
2022/08/23 01:42:48;;;;;;;14.55;8.43;;;;;;;;;;5021315;28;20077;-75
2022/08/23 01:45:15;;;;;;;12.60;7.72;;;;;;;;;;5013773;28;20194;-75
2022/08/23 01:47:42;;;;;;;12.48;7.25;;;;;;;;;;5010856;28;20054;-75
2022/08/23 01:50:11;;;;;;;12.77;7.75;;;;;;;;;;5020818;28;20049;-75
2022/08/23 01:52:39;;;;;;;14.73;7.63;;;;;;;;;;5009360;28;20027;-76
2022/08/23 01:55:13;;;;;;;13.93;7.35;;;;;;;;;;5016769;28;20073;-76
2022/08/23 01:57:41;;;;;;;11.50;7.63;;;;;;;;;;5012557;28;20055;-76
2022/08/23 02:00:11;;;;;;;13.88;7.70;;;;;;;;;;5019326;28;20079;-77
2022/08/23 02:02:40;;;;;;;13.18;7.97;;;;;;;;;;5012517;28;20099;-77
2022/08/23 02:05:09;;;;;;;13.18;7.30;;;;;;;;;;5015548;28;20062;-76
2022/08/23 02:07:36;;;;;;;16.50;7.32;;;;;;;;;;5017688;28;20043;-76
2022/08/23 02:10:06;;;;;;;11.90;7.85;;;;;;;;;;5018342;28;20046;-76
2022/08/23 02:12:34;;;;;;;10.40;7.60;;;;;;;;;;5021052;28;20046;-76
2022/08/23 02:15:01;;;;;;;13.55;7.72;;;;;;;;;;5020051;28;20421;-76
2022/08/23 02:17:28;;;;;;;14.25;7.95;;;;;;;;;;5010432;28;20085;-75
2022/08/23 02:19:56;;;;;;;10.60;7.57;;;;;;;;;;5013985;28;20046;-76
2022/08/23 02:22:23;;;;;;;11.13;7.45;;;;;;;;;;5020164;28;20054;-76
2022/08/23 02:24:50;;;;;;;15.35;7.93;;;;;;;;;;5014924;28;20054;-75
2022/08/23 02:27:18;;;;;;;17.73;7.90;;;;;;;;;;5010274;28;20049;-75
2022/08/23 02:29:46;;;;;;;13.95;7.85;;;;;;;;;;5013471;28;20054;-77
2022/08/23 02:32:15;;;;;;;18.15;7.90;;;;;;;;;;5006153;28;20043;-75
2022/08/23 02:34:43;;;;;;;11.20;7.80;;;;;;;;;;5011864;28;20046;-75
2022/08/23 02:37:25;;;;;;;13.30;8.05;;;;;;;;;;5012792;28;20061;-76
2022/08/23 02:39:52;;;;;;;13.45;8.30;;;;;;;;;;5011690;28;21549;-76
2022/08/23 02:42:20;;;;;;;19.15;8.20;;;;;;;;;;5010396;28;20043;-77
2022/08/23 02:44:47;;;;;;;14.93;8.73;;;;;;;;;;5003978;28;20942;-75
2022/08/23 02:47:14;;;;;;;14.20;8.65;;;;;;;;;;5004861;28;20057;-75
2022/08/23 02:49:42;;;;;;;10.77;7.78;;;;;;;;;;5014639;28;20053;-76
2022/08/23 02:52:09;;;;;;;13.80;7.93;;;;;;;;;;5005903;28;20049;-75
2022/08/23 02:54:36;;;;;;;15.23;8.10;;;;;;;;;;5013508;28;20073;-75
2022/08/23 02:57:04;;;;;;;18.27;7.93;;;;;;;;;;5014849;28;20026;-77
2022/08/23 02:59:31;;;;;;;13.38;7.97;;;;;;;;;;5018275;28;20059;-75
2022/08/23 03:01:58;;;;;;;13.65;8.20;;;;;;;;;;5015278;28;22026;-75
2022/08/23 03:04:26;;;;;;;12.77;8.45;;;;;;;;;;5010711;28;20047;-76
2022/08/23 03:06:54;;;;;;;14.02;7.78;;;;;;;;;;5010826;28;20089;-76
2022/08/23 03:09:21;;;;;;;13.27;8.13;;;;;;;;;;5003489;28;20054;-76
2022/08/23 03:11:49;;;;;;;11.52;7.55;;;;;;;;;;5010251;28;20051;-75
2022/08/23 03:14:16;;;;;;;17.95;9.80;;;;;;;;;;5012452;28;20038;-75
2022/08/23 03:16:43;;;;;;;14.18;7.97;;;;;;;;;;5012178;28;20035;-76
2022/08/23 03:19:12;;;;;;;13.70;8.30;;;;;;;;;;5009976;28;20046;-75
2022/08/23 03:21:41;;;;;;;13.05;7.95;;;;;;;;;;5011122;28;20053;-75
2022/08/23 03:24:10;;;;;;;15.88;7.85;;;;;;;;;;5006030;28;20046;-75
2022/08/23 03:26:37;;;;;;;11.88;8.15;;;;;;;;;;5010759;28;20050;-76
2022/08/23 03:29:05;;;;;;;10.40;7.05;;;;;;;;;;5028503;28;20081;-75
2022/08/23 03:31:32;;;;;;;13.70;8.18;;;;;;;;;;5008629;28;20053;-76
2022/08/23 03:33:59;;;;;;;12.93;7.10;;;;;;;;;;5008210;28;20046;-76
2022/08/23 03:36:26;;;;;;;16.25;8.25;;;;;;;;;;5020635;28;20061;-75
2022/08/23 03:38:55;;;;;;;15.27;8.65;;;;;;;;;;5009957;28;20117;-75
2022/08/23 03:41:22;;;;;;;14.18;8.63;;;;;;;;;;5015010;28;20047;-76
2022/08/23 03:43:49;;;;;;;14.80;8.88;;;;;;;;;;5018724;28;20051;-76
2022/08/23 03:46:26;;;;;;;16.83;8.57;;;;;;;;;;5020156;28;20046;-78
2022/08/23 03:49:00;;;;;;;15.23;9.23;;;;;;;;;;5016077;28;20058;-75
2022/08/23 03:51:28;;;;;;;14.60;8.48;;;;;;;;;;5016205;28;20065;-75
2022/08/23 03:53:55;;;;;;;17.30;9.05;;;;;;;;;;5016771;28;20074;-77
2022/08/23 03:56:25;;;;;;;19.75;8.80;;;;;;;;;;5018432;28;20057;-75
2022/08/23 03:58:53;;;;;;;15.05;8.10;;;;;;;;;;5020093;28;20065;-76
2022/08/23 04:01:20;;;;;;;12.30;8.43;;;;;;;;;;5012322;28;20690;-75
2022/08/23 04:03:53;;;;;;;14.90;9.43;;;;;;;;;;5013781;28;20037;-76
2022/08/23 04:06:20;;;;;;;17.05;9.57;;;;;;;;;;5014372;28;20053;-76
2022/08/23 04:08:48;;;;;;;13.45;8.50;;;;;;;;;;5017495;28;20066;-76
2022/08/23 04:11:15;;;;;;;16.80;10.20;;;;;;;;;;5016412;28;20902;-75
2022/08/23 04:13:42;;;;;;;15.73;10.98;;;;;;;;;;5018809;28;20054;-76
2022/08/23 04:16:09;;;;;;;13.00;8.13;;;;;;;;;;5008475;28;20050;-75
2022/08/23 04:18:37;;;;;;;18.00;9.82;;;;;;;;;;5012220;28;20921;-76
2022/08/23 04:21:06;;;;;;;12.75;8.73;;;;;;;;;;5023688;28;20800;-75
2022/08/23 04:23:33;;;;;;;18.02;8.38;;;;;;;;;;5017245;28;20038;-76
2022/08/23 04:26:00;;;;;;;16.48;7.95;;;;;;;;;;5018271;28;20042;-76
2022/08/23 04:28:29;;;;;;;14.88;8.48;;;;;;;;;;5009976;28;20066;-76
2022/08/23 04:30:59;;;;;;;13.80;7.93;;;;;;;;;;5023966;28;20057;-75
2022/08/23 04:33:26;;;;;;;13.68;7.50;;;;;;;;;;5026676;28;20042;-75
2022/08/23 04:35:53;;;;;;;13.82;8.27;;;;;;;;;;5021040;28;20138;-76
2022/08/23 04:38:21;;;;;;;14.73;8.68;;;;;;;;;;5024297;28;20835;-77
2022/08/23 04:43:38;;;;;;;15.10;7.75;;;;;;;;;;5011155;28;20046;-76
2022/08/23 04:46:05;;;;;;;14.38;8.35;;;;;;;;;;5016802;28;20054;-76
2022/08/23 04:48:34;;;;;;;13.45;7.45;;;;;;;;;;5015115;28;20053;-76
2022/08/23 04:51:02;;;;;;;14.07;7.00;;;;;;;;;;5019556;28;20061;-76
2022/08/23 04:53:31;;;;;;;13.20;7.75;;;;;;;;;;5017522;28;20046;-76
2022/08/23 04:55:59;;;;;;;18.33;7.90;;;;;;;;;;5015724;28;20177;-76
2022/08/23 04:58:26;;;;;;;14.30;8.35;;;;;;;;;;5013971;28;20047;-76
2022/08/23 05:00:54;;;;;;;14.57;8.13;;;;;;;;;;5011640;28;20058;-76
2022/08/23 05:03:21;;;;;;;11.70;7.93;;;;;;;;;;5014615;28;20102;-77
2022/08/23 05:05:48;;;;;;;12.15;7.75;;;;;;;;;;5013911;28;20039;-76
2022/08/23 05:08:15;;;;;;;12.75;7.57;;;;;;;;;;5012700;28;20050;-76
2022/08/23 05:10:43;;;;;;;16.83;8.35;;;;;;;;;;5007186;28;20054;-77
2022/08/23 05:13:10;;;;;;;9.75;7.35;;;;;;;;;;5009546;28;20034;-77
2022/08/23 05:15:37;;;;;;;10.10;7.18;;;;;;;;;;5012771;28;20146;-76
2022/08/23 05:18:05;;;;;;;12.90;8.30;;;;;;;;;;5006900;28;20098;-76
2022/08/23 05:20:37;;;;;;;15.32;8.20;;;;;;;;;;5021836;28;20153;-77
2022/08/23 05:23:04;;;;;;;13.32;7.43;;;;;;;;;;5009469;28;20059;-77
2022/08/23 05:25:51;;;;;;;11.30;7.90;;;;;;;;;;5010152;28;20038;-76
2022/08/23 05:28:22;;;;;;;14.50;8.02;;;;;;;;;;5007405;28;20099;-77
2022/08/23 05:31:02;;;;;;;15.25;8.27;;;;;;;;;;5012037;28;20058;-76
2022/08/23 05:33:30;;;;;;;10.57;7.70;;;;;;;;;;5011482;28;20058;-76
2022/08/23 05:35:57;;;;;;;11.38;7.10;;;;;;;;;;5027526;28;20055;-77
2022/08/23 05:38:25;;;;;;;12.50;7.05;;;;;;;;;;5016569;28;20105;-76
2022/08/23 05:40:54;;;;;;;9.93;7.32;;;;;;;;;;5012664;28;20049;-76
2022/08/23 05:43:21;;;;;;;13.65;7.68;;;;;;;;;;5009193;28;20062;-75
2022/08/23 05:45:58;;;;;;;14.50;7.30;;;;;;;;;;5009470;28;20064;-75
2022/08/23 05:48:27;;;;;;;14.40;6.93;;;;;;;;;;5009563;28;20057;-76
2022/08/23 05:50:55;;;;;;;15.30;7.32;;;;;;;;;;5009911;28;20803;-75
2022/08/23 05:53:22;;;;;;;13.27;7.60;;;;;;;;;;5000846;28;20750;-76
2022/08/23 05:55:50;;;;;;;12.15;8.40;;;;;;;;;;5005452;28;20980;-75
2022/08/23 05:58:17;;;;;;;14.32;8.68;;;;;;;;;;5002376;28;20133;-76
2022/08/23 06:00:44;;;;;;;15.07;7.78;;;;;;;;;;5001870;28;20047;-75
2022/08/23 06:03:15;;;;;;;13.95;7.85;;;;;;;;;;5009686;28;20089;-76
2022/08/23 06:05:42;;;;;;;11.52;8.13;;;;;;;;;;5006654;28;20517;-75
2022/08/23 06:08:09;;;;;;;11.30;7.22;;;;;;;;;;5000538;28;20141;-75
2022/08/23 06:10:37;;;;;;;9.30;6.82;;;;;;;;;;5001125;28;20043;-75
2022/08/23 06:13:08;;;;;;;10.88;7.45;;;;;;;;;;5007411;28;20043;-75
2022/08/23 06:15:36;;;;;;;10.25;6.78;;;;;;;;;;5018018;28;20035;-76
2022/08/23 06:18:04;;;;;;;24.20;9.60;;;;;;;;;;5004521;28;20055;-75
2022/08/23 06:20:31;;;;;;;16.98;8.60;;;;;;;;;;5006837;28;20046;-75
2022/08/23 06:22:59;;;;;;;12.75;7.85;;;;;;;;;;4998071;28;20061;-75
2022/08/23 06:25:30;;;;;;;12.80;7.68;;;;;;;;;;5011102;28;20081;-75
2022/08/23 06:27:58;;;;;;;13.97;8.67;;;;;;;;;;5001476;28;20058;-75
2022/08/23 06:30:28;;;;;;;14.85;8.23;;;;;;;;;;5005015;28;20062;-76
2022/08/23 06:32:56;;;;;;;21.35;8.23;;;;;;;;;;5007992;28;20057;-75
2022/08/23 06:35:23;;;;;;;16.52;8.48;;;;;;;;;;5010740;28;20051;-74
2022/08/23 06:38:06;;;;;;;20.58;9.43;;;;;;;;;;5011693;28;20058;-75
2022/08/23 06:40:36;;;;;;;13.68;8.32;;;;;;;;;;5010017;28;20138;-75
2022/08/23 06:43:03;;;;;;;12.23;8.52;;;;;;;;;;4999160;28;20137;-75
2022/08/23 06:45:32;;;;;;;20.58;9.25;;;;;;;;;;5003749;28;20043;-76
2022/08/23 06:48:01;;;;;;;15.95;9.15;;;;;;;;;;5000882;28;20063;-75
2022/08/23 06:50:29;;;;;;;14.02;9.02;;;;;;;;;;5004455;28;20058;-75
2022/08/23 06:52:58;;;;;;;20.90;10.13;;;;;;;;;;5007414;28;20062;-75
2022/08/23 06:55:26;;;;;;;14.13;9.35;;;;;;;;;;5002412;28;20800;-75
2022/08/23 06:57:53;;;;;;;14.45;8.80;;;;;;;;;;5008275;28;20042;-75
2022/08/23 07:00:20;;;;;;;17.65;9.73;;;;;;;;;;5006794;28;20066;-75
2022/08/23 07:02:51;;;;;;;16.48;9.95;;;;;;;;;;5005397;28;20066;-75
2022/08/23 07:05:22;;;;;;;19.98;10.35;;;;;;;;;;5020696;28;20055;-77
2022/08/23 07:07:49;;;;;;;16.60;9.38;;;;;;;;;;5023813;28;20046;-76
2022/08/23 07:10:16;;;;;;;19.42;9.27;;;;;;;;;;5016948;28;20085;-76
2022/08/23 07:12:44;;;;;;;17.98;9.85;;;;;;;;;;5012037;28;20182;-76
2022/08/23 07:15:12;;;;;;;16.83;9.45;;;;;;;;;;5015486;28;20033;-77
2022/08/23 07:17:39;;;;;;;17.77;9.90;;;;;;;;;;5014757;28;20954;-77
2022/08/23 07:20:06;;;;;;;24.00;10.27;;;;;;;;;;5014829;28;20105;-76
2022/08/23 07:22:34;;;;;;;14.82;10.23;;;;;;;;;;5008599;28;20133;-76
2022/08/23 07:25:02;;;;;;;14.45;9.18;;;;;;;;;;5012650;28;20092;-76
2022/08/23 07:27:29;;;;;;;21.23;10.02;;;;;;;;;;5017435;28;20058;-77
2022/08/23 07:29:56;;;;;;;16.00;10.15;;;;;;;;;;5014658;28;20050;-75
2022/08/23 07:32:24;;;;;;;17.17;9.38;;;;;;;;;;5011722;28;20039;-76
2022/08/23 07:34:51;;;;;;;18.40;10.23;;;;;;;;;;5012274;28;20497;-76
2022/08/23 07:37:18;;;;;;;19.38;11.68;;;;;;;;;;5015821;28;20051;-76
2022/08/23 07:39:45;;;;;;;14.90;10.07;;;;;;;;;;5032175;28;20043;-75
2022/08/23 07:42:13;;;;;;;14.90;9.88;;;;;;;;;;5033332;28;20039;-78
2022/08/23 07:44:50;;;;;;;14.77;9.73;;;;;;;;;;5012378;28;20051;-75
2022/08/23 07:47:20;;;;;;;17.50;9.60;;;;;;;;;;5014263;28;20084;-77
2022/08/23 07:49:47;;;;;;;18.48;10.18;;;;;;;;;;5011786;28;20055;-75
2022/08/23 07:52:14;;;;;;;16.05;9.82;;;;;;;;;;5016138;28;20039;-76
2022/08/23 07:54:41;;;;;;;19.85;10.27;;;;;;;;;;5011785;28;20170;-76
2022/08/23 07:57:15;;;;;;;13.80;9.30;;;;;;;;;;5014284;28;20130;-77
2022/08/23 07:59:42;;;;;;;15.00;9.52;;;;;;;;;;5015404;28;20050;-76
2022/08/23 08:02:09;;;;;;;14.70;9.32;;;;;;;;;;5018910;28;20041;-76
2022/08/23 08:04:37;;;;;;;13.93;8.98;;;;;;;;;;5019473;28;20079;-75
2022/08/23 08:07:04;;;;;;;17.02;9.45;;;;;;;;;;5018706;28;20049;-76
2022/08/23 08:09:46;;;;;;;18.00;9.10;;;;;;;;;;5018460;28;20054;-77
2022/08/23 08:12:13;;;;;;;12.82;8.38;;;;;;;;;;5013608;28;20069;-77
2022/08/23 08:14:41;;;;;;;15.43;8.85;;;;;;;;;;5014639;28;20059;-76
2022/08/23 08:17:09;;;;;;;22.15;8.57;;;;;;;;;;5019121;28;20054;-76
2022/08/23 08:19:36;;;;;;;16.65;8.25;;;;;;;;;;5017043;28;20050;-76
2022/08/23 08:22:03;;;;;;;13.07;8.38;;;;;;;;;;5018337;28;20190;-76
2022/08/23 08:24:30;;;;;;;16.73;7.43;;;;;;;;;;5011954;28;20872;-77
2022/08/23 08:26:57;;;;;;;16.25;7.60;;;;;;;;;;5010515;28;20054;-78
2022/08/23 08:29:25;;;;;;;15.15;7.28;;;;;;;;;;5016070;28;20138;-76
2022/08/23 08:31:52;;;;;;;13.00;7.20;;;;;;;;;;5029886;28;20042;-76
2022/08/23 08:34:21;;;;;;;14.55;6.88;;;;;;;;;;5017672;28;20063;-76
2022/08/23 08:36:50;;;;;;;12.80;6.95;;;;;;;;;;5013250;28;20031;-76
2022/08/23 08:39:21;;;;;;;12.77;6.60;;;;;;;;;;5012520;28;20117;-76
2022/08/23 08:42:03;;;;;;;13.18;6.40;;;;;;;;;;5011928;28;20054;-75
2022/08/23 08:44:37;;;;;;;13.48;6.30;;;;;;;;;;5016886;28;20034;-76
2022/08/23 08:47:13;;;;;;;12.50;6.53;;;;;;;;;;5017176;28;20051;-77
2022/08/23 08:49:58;;;;;;;13.15;6.53;;;;;;;;;;5015381;28;20058;-76
2022/08/23 08:52:34;;;;;;;11.88;6.50;;;;;;;;;;5011223;28;20497;-76
2022/08/23 08:55:10;;;;;;;10.60;4.90;;;;;;;;;;5008701;28;20151;-76
2022/08/23 08:57:38;;;;;;;10.60;4.90;;;;;;;;;;5008488;28;20106;-77
2022/08/23 09:00:13;;;;;;;11.90;4.45;;;;;;;;;;5001836;28;20046;-76
2022/08/23 09:02:41;;;;;;;17.65;5.15;;;;;;;;;;5008451;28;21010;-76
2022/08/23 09:05:17;;;;;;;9.60;4.40;;;;;;;;;;5009809;28;20055;-76
2022/08/23 09:08:11;;;;;;;12.45;5.15;;;;;;;;;;5008176;28;20084;-77
2022/08/23 09:11:01;;;;;;;10.85;4.80;;;;;;;;;;5000247;28;20122;-75
2022/08/23 09:13:40;;;;;;;24.33;5.65;;;;;;;;;;5012121;28;20060;-77
2022/08/23 09:16:30;;;;;;;15.77;5.10;;;;;;;;;;5010454;28;20098;-76
2022/08/23 09:18:59;;;;;;;14.38;5.38;;;;;;;;;;5019076;28;20129;-76
2022/08/23 09:21:26;;;;;;;12.13;5.22;;;;;;;;;;5015121;28;20903;-77
2022/08/23 09:23:54;;;;;;;11.90;5.03;;;;;;;;;;5015711;28;20556;-77
2022/08/23 09:26:28;;;;;;;;;;;;;;;;;;5008278;28;20039;-76
2022/08/23 09:29:01;;;;;;;12.52;5.72;;;;;;;;;;5009121;28;45520;-76
2022/08/23 09:31:35;;;;;;;15.15;5.38;;;;;;;;;;5016928;28;20082;-77
2022/08/23 09:34:03;;;;;;;15.93;6.10;;;;;;;;;;5014370;28;20062;-77
2022/08/23 09:36:35;;;;;;;16.67;6.13;;;;;;;;;;5009842;28;20046;-77
2022/08/23 09:39:29;;;;;;;15.87;6.50;;;;;;;;;;5009282;28;20052;-76
2022/08/23 09:41:57;;;;;;;14.25;5.90;;;;;;;;;;5013419;28;21281;-76
2022/08/23 09:44:36;;;;;;;10.98;5.88;;;;;;;;;;5026156;28;21632;-76
2022/08/23 09:47:11;;;;;;;13.43;6.20;;;;;;;;;;5031972;28;20050;-75
2022/08/23 09:49:40;;;;;;;15.05;6.13;;;;;;;;;;5016587;28;20061;-75
2022/08/23 09:52:12;;;;;;;13.02;5.63;;;;;;;;;;5013497;28;20511;-75
2022/08/23 09:55:07;;;;;;;14.80;5.15;;;;;;;;;;5012459;28;20046;-77
2022/08/23 09:57:34;;;;;;;10.20;5.13;;;;;;;;;;5016425;28;20038;-75
2022/08/23 10:00:22;;;;;;;10.27;4.80;;;;;;;;;;5013285;28;20054;-76
2022/08/23 10:02:49;;;;;;;11.30;4.63;;;;;;;;;;5012266;28;20063;-75
2022/08/23 10:05:19;;;;;;;11.13;4.60;;;;;;;;;;5009102;28;20050;-76
2022/08/23 10:07:54;;;;;;;8.73;3.83;;;;;;;;;;5026677;28;20096;-76
2022/08/23 10:10:25;;;;;;;8.23;4.03;;;;;;;;;;5026340;28;20785;-75
2022/08/23 10:12:53;;;;;;;11.25;3.85;;;;;;;;;;5021465;28;20057;-75
2022/08/23 10:15:24;;;;;;;17.33;4.07;;;;;;;;;;5022685;28;20046;-76
2022/08/23 10:17:59;;;;;;;11.00;4.20;;;;;;;;;;5013378;28;20074;-75
2022/08/23 10:20:56;;;;;;;8.40;3.03;;;;;;;;;;5017012;28;20061;-75
2022/08/23 10:23:44;;;;;;;9.50;3.05;;;;;;;;;;5015675;28;20054;-76
2022/08/23 10:26:17;;;;;;;9.27;2.55;;;;;;;;;;5021621;28;20061;-76
2022/08/23 10:31:47;;;;;;;6.78;2.50;;;;;;;;;;5013832;28;20515;-75
2022/08/23 10:34:27;;;;;;;10.23;2.47;;;;;;;;;;5014567;28;20061;-75
2022/08/23 10:37:13;;;;;;;6.57;2.10;;;;;;;;;;5005348;28;20053;-76
2022/08/23 10:40:00;;;;;;;7.57;2.30;;;;;;;;;;5012913;28;20112;-76
2022/08/23 10:42:35;;;;;;;8.98;2.42;;;;;;;;;;5013016;28;20085;-76
2022/08/23 10:45:10;;;;;;;11.10;2.03;;;;;;;;;;5009871;28;20049;-76
2022/08/23 10:47:43;;;;;;;8.05;2.38;;;;;;;;;;5013826;28;20222;-75
2022/08/23 10:50:13;;;;;;;5.38;2.17;;;;;;;;;;5008400;28;20063;-75
2022/08/23 10:52:47;;;;;;;6.57;2.22;;;;;;;;;;5007535;28;20051;-78
2022/08/23 10:55:42;;;;;;;9.77;2.65;;;;;;;;;;5012570;28;20117;-76
2022/08/23 10:58:14;;;;;;;9.68;2.47;;;;;;;;;;5017308;28;20050;-75
2022/08/23 11:00:41;;;;;;;12.82;2.70;;;;;;;;;;5014268;28;20057;-76
2022/08/23 11:03:21;;;;;;;8.82;2.58;;;;;;;;;;5027380;28;20046;-75
2022/08/23 11:06:13;;;;;;;4.97;2.15;;;;;;;;;;5015691;28;20066;-76
2022/08/23 11:08:45;;;;;;;9.10;2.40;;;;;;;;;;5014063;28;20074;-75
2022/08/23 11:11:33;;;;;;;9.77;2.28;;;;;;;;;;5021945;28;20118;-75
2022/08/23 11:14:00;;;;;;;9.15;2.53;;;;;;;;;;5015672;28;20046;-75
2022/08/23 11:16:30;;;;;;;8.52;2.40;;;;;;;;;;5015405;28;20054;-76
2022/08/23 11:18:57;;;;;;;9.93;2.15;;;;;;;;;;5006172;28;20050;-75
2022/08/23 11:21:24;;;;;;;8.57;2.72;;;;;;;;;;5009614;28;20118;-76
2022/08/23 11:23:53;;;;;;;9.02;2.20;;;;;;;;;;5012420;28;20104;-74
2022/08/23 11:26:26;;;;;;;7.03;2.38;;;;;;;;;;5013492;28;20058;-76
2022/08/23 11:28:55;;;;;;;9.00;2.42;;;;;;;;;;5013341;28;20051;-76
2022/08/23 11:31:25;;;;;;;8.48;2.40;;;;;;;;;;5017420;28;20133;-75
2022/08/23 11:34:11;;;;;;;6.72;2.28;;;;;;;;;;5013268;28;20042;-76
2022/08/23 11:36:38;;;;;;;11.90;2.90;;;;;;;;;;5016159;28;20042;-75
2022/08/23 11:39:05;;;;;;;12.55;2.83;;;;;;;;;;5019315;28;20113;-76
2022/08/23 11:41:35;;;;;;;7.22;2.72;;;;;;;;;;5019575;28;20061;-75
2022/08/23 11:44:06;;;;;;;8.18;2.63;;;;;;;;;;5007719;28;20053;-77
2022/08/23 11:46:33;;;;;;;7.57;2.15;;;;;;;;;;5014523;28;20060;-79
2022/08/23 11:49:16;;;;;;;7.15;2.78;;;;;;;;;;5012314;28;20054;-75
2022/08/23 11:51:48;;;;;;;7.97;2.65;;;;;;;;;;5018763;28;20050;-77
2022/08/23 11:54:22;;;;;;;7.65;3.00;;;;;;;;;;5026933;28;20057;-74
2022/08/23 11:57:13;;;;;;;8.43;2.95;;;;;;;;;;5014304;28;20054;-75
2022/08/23 12:00:17;;;;;;;8.77;2.67;;;;;;;;;;5015903;28;20056;-75
2022/08/23 12:03:02;;;;;;;8.73;2.78;;;;;;;;;;5015248;28;20043;-79
2022/08/23 12:05:33;;;;;;;5.35;2.13;;;;;;;;;;5014403;28;20254;-76
2022/08/23 12:08:04;;;;;;;9.85;2.90;;;;;;;;;;5006779;28;20067;-78
2022/08/23 12:10:37;;;;;;;12.15;3.08;;;;;;;;;;4993435;28;20045;-75
2022/08/23 12:13:20;;;;;;;13.02;3.22;;;;;;;;;;5015649;28;20236;-75
2022/08/23 12:16:05;;;;;;;7.68;2.78;;;;;;;;;;5006416;28;20047;-77
2022/08/23 12:18:48;;;;;;;9.95;2.33;;;;;;;;;;5013456;28;20056;-75
2022/08/23 12:21:27;;;;;;;10.93;2.50;;;;;;;;;;5006845;28;20041;-76
2022/08/23 12:23:56;;;;;;;7.38;2.13;;;;;;;;;;5007819;28;20047;-75
2022/08/23 12:26:39;;;;;;;8.02;2.30;;;;;;;;;;5013431;28;20149;-76
2022/08/23 12:29:11;;;;;;;7.43;2.40;;;;;;;;;;5008428;28;20246;-76
2022/08/23 12:31:38;;;;;;;10.30;2.60;;;;;;;;;;5005254;28;20871;-76
2022/08/23 12:34:23;;;;;;;5.65;2.13;;;;;;;;;;5009663;28;20313;-75
2022/08/23 12:37:00;;;;;;;7.93;2.25;;;;;;;;;;5019457;28;20050;-78
2022/08/23 12:39:47;;;;;;;9.75;2.35;;;;;;;;;;5016498;28;20105;-76
2022/08/23 12:42:23;;;;;;;10.38;2.50;;;;;;;;;;5014761;28;20039;-75
2022/08/23 12:45:02;;;;;;;5.13;1.90;;;;;;;;;;5012889;28;20110;-76
2022/08/23 12:47:29;;;;;;;8.90;2.22;;;;;;;;;;5027441;28;20061;-75
2022/08/23 12:50:00;;;;;;;7.30;2.28;;;;;;;;;;5005640;28;20065;-75
2022/08/23 12:52:30;;;;;;;5.90;2.00;;;;;;;;;;5007857;28;20065;-75
2022/08/23 12:54:57;;;;;;;8.10;2.10;;;;;;;;;;5008740;28;20055;-76
2022/08/23 12:57:29;;;;;;;5.93;2.08;;;;;;;;;;5006038;28;20098;-75
2022/08/23 13:00:01;;;;;;;8.40;1.95;;;;;;;;;;5009914;28;20054;-75
2022/08/23 13:02:48;;;;;;;7.05;2.03;;;;;;;;;;5015417;28;20046;-76
2022/08/23 13:05:36;;;;;;;7.47;2.10;;;;;;;;;;5009399;28;20967;-75
2022/08/23 13:08:05;;;;;;;8.00;2.17;;;;;;;;;;5002177;28;20046;-76
2022/08/23 13:10:33;;;;;;;4.95;2.00;;;;;;;;;;5012532;28;20062;-75
2022/08/23 13:13:00;;;;;;;4.78;2.03;;;;;;;;;;5007940;28;20903;-76
2022/08/23 13:15:42;;;;;;;5.75;1.98;;;;;;;;;;5006701;28;20143;-76
2022/08/23 13:18:09;;;;;;;5.88;2.00;;;;;;;;;;5016657;28;20062;-76
2022/08/23 13:20:37;;;;;;;7.90;2.35;;;;;;;;;;5017100;28;20833;-75
2022/08/23 13:23:07;;;;;;;6.70;2.22;;;;;;;;;;5017093;28;20743;-76
2022/08/23 13:25:39;;;;;;;10.18;2.35;;;;;;;;;;5020419;28;20895;-77
2022/08/23 13:28:26;;;;;;;7.45;2.25;;;;;;;;;;5018463;28;20050;-78
2022/08/23 13:31:04;;;;;;;5.88;2.25;;;;;;;;;;5018399;28;20061;-75
2022/08/23 13:33:31;;;;;;;5.63;1.85;;;;;;;;;;5013241;28;20081;-76
2022/08/23 13:36:18;;;;;;;8.65;2.60;;;;;;;;;;5015125;28;20131;-78
2022/08/23 13:38:47;;;;;;;7.90;2.22;;;;;;;;;;5013017;28;20049;-76
2022/08/23 13:41:32;;;;;;;6.28;2.13;;;;;;;;;;5016365;28;20049;-75
2022/08/23 13:44:06;;;;;;;7.80;2.40;;;;;;;;;;5018931;28;20074;-76
2022/08/23 13:46:35;;;;;;;10.77;2.05;;;;;;;;;;5014774;28;20047;-75
2022/08/23 13:49:05;;;;;;;7.28;2.10;;;;;;;;;;5015687;28;20109;-76
2022/08/23 13:51:33;;;;;;;7.57;2.30;;;;;;;;;;5013901;28;20047;-78
2022/08/23 13:54:04;;;;;;;4.78;1.90;;;;;;;;;;5007621;28;20157;-78
2022/08/23 13:56:35;;;;;;;4.10;1.70;;;;;;;;;;5017639;28;20477;-79
2022/08/23 13:59:04;;;;;;;6.97;2.15;;;;;;;;;;5014174;28;20161;-77
2022/08/23 14:01:32;;;;;;;7.45;1.73;;;;;;;;;;5016770;28;20059;-77
2022/08/23 14:03:59;;;;;;;4.63;2.00;;;;;;;;;;5012935;28;20070;-77
2022/08/23 14:06:26;;;;;;;5.97;2.08;;;;;;;;;;5012338;28;20050;-74
2022/08/23 14:08:53;;;;;;;7.78;1.70;;;;;;;;;;5017073;28;20086;-75
2022/08/23 14:11:21;;;;;;;9.55;2.08;;;;;;;;;;5015329;28;20051;-76
2022/08/23 14:13:48;;;;;;;5.40;2.22;;;;;;;;;;5010403;28;20084;-75
2022/08/23 14:16:24;;;;;;;4.65;1.60;;;;;;;;;;5008502;28;20060;-75
2022/08/23 14:19:00;;;;;;;6.78;1.80;;;;;;;;;;5005962;28;20079;-74
2022/08/23 14:21:48;;;;;;;7.15;1.60;;;;;;;;;;5013149;28;20906;-76
2022/08/23 14:24:17;;;;;;;8.55;2.00;;;;;;;;;;5004679;28;20043;-75
2022/08/23 14:26:44;;;;;;;5.65;1.83;;;;;;;;;;5014427;28;20139;-76
2022/08/23 14:29:18;;;;;;;4.00;1.52;;;;;;;;;;5009786;28;20055;-75
2022/08/23 14:31:48;;;;;;;6.18;1.90;;;;;;;;;;5009355;28;20050;-75
2022/08/23 14:34:15;;;;;;;6.18;1.92;;;;;;;;;;5010662;28;20054;-77
2022/08/23 14:36:42;;;;;;;6.25;2.05;;;;;;;;;;5011584;28;20031;-75
2022/08/23 14:39:30;;;;;;;7.63;2.13;;;;;;;;;;5008013;28;20050;-74
2022/08/23 14:41:57;;;;;;;5.53;2.10;;;;;;;;;;5012260;28;20141;-76
2022/08/23 14:44:25;;;;;;;4.68;1.75;;;;;;;;;;5010294;28;21294;-75
2022/08/23 14:46:59;;;;;;;9.20;1.40;;;;;;;;;;5015900;28;20074;-76
2022/08/23 14:49:26;;;;;;;5.25;1.60;;;;;;;;;;5009256;28;20054;-74
2022/08/23 14:51:53;;;;;;;6.05;1.73;;;;;;;;;;5015648;28;20685;-75
2022/08/23 14:54:22;;;;;;;9.75;1.85;;;;;;;;;;5016282;28;20432;-77
2022/08/23 14:56:50;;;;;;;5.53;1.60;;;;;;;;;;5018341;28;20057;-74
2022/08/23 14:59:17;;;;;;;4.97;2.00;;;;;;;;;;5018763;28;20098;-76
2022/08/23 15:01:46;;;;;;;9.27;1.83;;;;;;;;;;5018561;28;20080;-75
2022/08/23 15:04:17;;;;;;;4.63;1.60;;;;;;;;;;5023772;28;20149;-74
2022/08/23 15:06:44;;;;;;;8.43;1.77;;;;;;;;;;5016523;28;20042;-75
2022/08/23 15:09:32;;;;;;;6.60;1.60;;;;;;;;;;5016966;28;20054;-75